createdAt,value
2023-05-30T00:02:52.892Z,100.00
2023-05-30T00:06:55.125Z,100.00
2023-05-30T00:10:57.812Z,100.00
2023-05-30T00:15:02.472Z,100.00
2023-05-30T00:19:05.666Z,100.00
2023-05-30T00:23:08.044Z,100.00
2023-05-30T00:27:11.967Z,100.00
2023-05-30T00:31:14.170Z,100.00
2023-05-30T00:35:16.510Z,100.00
2023-05-30T00:39:19.213Z,100.00
2023-05-30T00:43:23.037Z,100.00
2023-05-30T00:47:27.183Z,100.00
2023-05-30T00:51:29.666Z,100.00
2023-05-30T00:55:31.813Z,100.00
2023-05-30T00:59:34.792Z,100.00
2023-05-30T01:03:39.010Z,100.00
2023-05-30T01:07:49.176Z,100.00
2023-05-30T01:12:19.774Z,100.00
2023-05-30T01:16:26.553Z,100.00
2023-05-30T01:20:34.785Z,100.00
2023-05-30T01:24:43.374Z,100.00
2023-05-30T01:28:48.028Z,100.00
2023-05-30T01:32:50.737Z,100.00
2023-05-30T01:36:53.059Z,100.00
2023-05-30T01:41:00.790Z,100.00
2023-05-30T01:45:12.270Z,100.00
2023-05-30T01:49:22.940Z,100.00
2023-05-30T01:53:35.167Z,100.00
2023-05-30T01:57:44.284Z,100.00
2023-05-30T02:01:48.698Z,100.00
2023-05-30T02:05:50.924Z,100.00
2023-05-30T02:09:53.177Z,100.00
2023-05-30T02:13:55.350Z,100.00
2023-05-30T02:18:00.615Z,100.00
2023-05-30T02:22:03.393Z,100.00
2023-05-30T02:26:06.228Z,100.00
2023-05-30T02:30:08.779Z,100.00
2023-05-30T02:34:11.334Z,100.00
2023-05-30T02:38:14.042Z,100.00
2023-05-30T02:42:17.074Z,100.00
2023-05-30T02:46:20.392Z,100.00
2023-05-30T02:50:23.783Z,100.00
2023-05-30T02:54:26.223Z,100.00
2023-05-30T02:59:00.610Z,100.00
2023-05-30T03:03:13.100Z,100.00
2023-05-30T03:07:20.185Z,100.00
2023-05-30T03:11:23.181Z,100.00
2023-05-30T03:15:27.953Z,100.00
2023-05-30T03:19:32.238Z,100.00
2023-05-30T03:23:35.917Z,100.00
2023-05-30T03:27:38.547Z,100.00
2023-05-30T03:31:41.820Z,100.00
2023-05-30T03:35:46.297Z,100.00
2023-05-30T03:39:48.658Z,100.00
2023-05-30T03:43:50.937Z,100.00
2023-05-30T03:47:54.397Z,100.00
2023-05-30T03:51:57.040Z,100.00
2023-05-30T03:56:00.137Z,100.00
2023-05-30T04:00:02.940Z,100.00
2023-05-30T04:04:14.819Z,100.00
2023-05-30T04:08:17.316Z,100.00
2023-05-30T04:12:19.473Z,100.00
2023-05-30T04:16:21.919Z,100.00
2023-05-30T04:20:25.284Z,100.00
2023-05-30T04:24:31.050Z,100.00
2023-05-30T04:28:34.222Z,100.00
2023-05-30T04:32:36.334Z,100.00
2023-05-30T04:36:39.596Z,100.00
2023-05-30T04:40:42.696Z,100.00
2023-05-30T04:44:46.297Z,100.00
2023-05-30T04:48:53.461Z,100.00
2023-05-30T04:52:55.891Z,100.00
2023-05-30T04:56:58.877Z,100.00
2023-05-30T05:01:02.523Z,100.00
2023-05-30T05:05:07.456Z,100.00
2023-05-30T05:09:09.835Z,100.00
2023-05-30T05:13:12.011Z,100.00
2023-05-30T05:17:15.031Z,100.00
2023-05-30T05:21:17.588Z,100.00
2023-05-30T05:25:20.065Z,100.00
2023-05-30T05:29:22.596Z,100.00
2023-05-30T05:33:25.006Z,100.00
2023-05-30T05:37:27.188Z,100.00
2023-05-30T05:41:29.304Z,100.00
2023-05-30T05:45:31.625Z,100.00
2023-05-30T05:49:34.296Z,100.00
2023-05-30T05:53:36.529Z,100.00
2023-05-30T05:57:38.753Z,100.00
2023-05-30T06:01:41.146Z,100.00
2023-05-30T06:05:43.483Z,100.00
2023-05-30T06:09:45.774Z,100.00
2023-05-30T06:13:48.314Z,100.00
2023-05-30T06:17:51.367Z,100.00
2023-05-30T06:21:54.061Z,100.00
2023-05-30T06:25:56.587Z,100.00
2023-05-30T06:29:58.843Z,100.00
2023-05-30T06:34:01.698Z,100.00
2023-05-30T06:38:04.155Z,100.00
2023-05-30T06:42:07.291Z,100.00
2023-05-30T06:46:14.076Z,100.00
2023-05-30T06:50:19.445Z,100.00
2023-05-30T06:54:22.154Z,100.00
2023-05-30T06:58:24.765Z,100.00
2023-05-30T07:02:27.219Z,95.85
2023-05-30T07:06:29.449Z,93.26
2023-05-30T07:10:31.722Z,88.33
2023-05-30T07:14:34.204Z,77.16
2023-05-30T07:18:36.897Z,81.97
2023-05-30T07:22:39.648Z,84.31
2023-05-30T07:26:41.752Z,69.04
2023-05-30T07:30:43.839Z,72.58
2023-05-30T07:34:46.164Z,68.11
2023-05-30T07:38:49.158Z,63.97
2023-05-30T07:42:51.732Z,62.44
2023-05-30T07:46:53.860Z,61.58
2023-05-30T07:50:56.289Z,61.67
2023-05-30T07:54:58.848Z,59.79
2023-05-30T07:59:00.947Z,56.71
2023-05-30T08:03:03.036Z,58.93
2023-05-30T08:07:05.688Z,57.55
2023-05-30T08:11:07.877Z,57.60
2023-05-30T08:15:10.656Z,55.65
2023-05-30T08:19:13.408Z,56.50
2023-05-30T08:23:15.467Z,54.03
2023-05-30T08:27:18.696Z,57.53
2023-05-30T08:31:21.227Z,53.09
2023-05-30T08:35:23.326Z,53.25
2023-05-30T08:39:25.510Z,53.37
2023-05-30T08:43:27.747Z,55.84
2023-05-30T08:47:29.955Z,52.33
2023-05-30T08:51:33.633Z,52.14
2023-05-30T08:55:55.706Z,48.43
2023-05-30T08:59:59.155Z,51.89
2023-05-30T09:04:05.916Z,51.80
2023-05-30T09:08:09.424Z,51.72
2023-05-30T09:12:11.744Z,52.48
2023-05-30T09:16:14.238Z,48.40
2023-05-30T09:20:18.539Z,52.21
2023-05-30T09:24:21.249Z,46.61
2023-05-30T09:28:28.055Z,48.77
2023-05-30T09:32:33.127Z,47.96
2023-05-30T09:36:35.281Z,46.35
2023-05-30T09:40:37.524Z,47.99
2023-05-30T09:44:52.935Z,47.71
2023-05-30T09:48:56.271Z,46.22
2023-05-30T09:53:01.030Z,45.85
2023-05-30T09:57:04.022Z,47.80
2023-05-30T10:01:06.103Z,45.79
2023-05-30T10:05:27.659Z,45.07
2023-05-30T10:09:30.005Z,46.64
2023-05-30T10:13:31.975Z,45.52
2023-05-30T10:17:37.461Z,44.72
2023-05-30T10:21:40.234Z,47.32
2023-05-30T10:25:51.984Z,43.39
2023-05-30T10:30:16.541Z,43.60
2023-05-30T10:34:22.507Z,42.42
2023-05-30T10:38:28.544Z,43.35
2023-05-30T10:42:39.669Z,43.79
2023-05-30T10:46:58.434Z,39.94
2023-05-30T10:51:01.638Z,40.94
2023-05-30T10:55:11.621Z,41.21
2023-05-30T11:03:37.066Z,38.13
2023-05-30T11:07:41.533Z,39.81
2023-05-30T11:11:54.837Z,39.16
2023-05-30T11:15:57.055Z,35.31
2023-05-30T11:20:13.749Z,35.37
2023-05-30T11:28:34.657Z,33.73
2023-05-30T11:32:38.449Z,35.24
2023-05-30T11:36:41.077Z,33.70
2023-05-30T11:40:44.183Z,34.08
2023-05-30T11:44:46.698Z,33.30
2023-05-30T11:48:48.942Z,32.66
2023-05-30T11:52:51.132Z,32.55
2023-05-30T11:56:53.692Z,30.83
2023-05-30T12:00:56.012Z,29.94
2023-05-30T12:05:05.306Z,30.71
2023-05-30T12:09:07.398Z,33.18
2023-05-30T12:13:09.976Z,34.28
2023-05-30T12:17:17.556Z,32.72
2023-05-30T12:21:20.277Z,30.24
2023-05-30T12:25:30.148Z,32.26
2023-05-30T12:29:35.881Z,34.21
2023-05-30T12:33:37.936Z,30.77
2023-05-30T12:37:40.509Z,31.90
2023-05-30T12:41:42.608Z,30.79
2023-05-30T12:45:47.729Z,33.47
2023-05-30T12:49:50.197Z,32.94
2023-05-30T12:53:54.486Z,31.09
2023-05-30T12:57:58.901Z,32.26
2023-05-30T13:02:01.333Z,33.29
2023-05-30T13:06:04.030Z,33.48
2023-05-30T13:10:07.035Z,35.80
2023-05-30T13:14:09.197Z,31.92
2023-05-30T13:18:11.551Z,31.41
2023-05-30T13:22:13.827Z,31.24
2023-05-30T13:26:16.122Z,32.29
2023-05-30T13:30:18.380Z,33.13
2023-05-30T13:34:21.801Z,34.56
2023-05-30T13:38:23.955Z,29.56
2023-05-30T13:42:26.765Z,31.10
2023-05-30T13:46:28.825Z,32.67
2023-05-30T13:50:31.434Z,32.59
2023-05-30T13:54:33.516Z,30.78
2023-05-30T13:58:35.957Z,32.29
2023-05-30T14:02:38.882Z,32.71
2023-05-30T14:06:41.275Z,31.52
2023-05-30T14:10:45.763Z,33.27
2023-05-30T14:14:48.827Z,34.23
2023-05-30T14:18:50.858Z,31.73
2023-05-30T14:22:52.925Z,32.86
2023-05-30T14:26:55.000Z,33.54
2023-05-30T14:30:57.040Z,34.25
2023-05-30T14:34:59.132Z,33.13
2023-05-30T14:39:01.247Z,33.49
2023-05-30T14:43:03.452Z,34.66
2023-05-30T14:47:05.647Z,34.07
2023-05-30T14:51:08.939Z,34.70
2023-05-30T14:55:11.201Z,37.61
2023-05-30T14:59:13.187Z,35.81
2023-05-30T15:03:16.692Z,36.70
2023-05-30T15:07:19.036Z,34.05
2023-05-30T15:11:23.165Z,34.56
2023-05-30T15:15:25.396Z,35.69
2023-05-30T15:19:27.543Z,34.05
2023-05-30T15:23:29.601Z,33.53
2023-05-30T15:27:31.771Z,33.78
2023-05-30T15:31:33.869Z,35.04
2023-05-30T15:35:36.072Z,34.80
2023-05-30T15:39:38.615Z,35.38
2023-05-30T15:43:40.886Z,36.44
2023-05-30T15:47:43.042Z,36.69
2023-05-30T15:51:45.496Z,36.78
2023-05-30T15:55:47.652Z,37.88
2023-05-30T15:59:49.779Z,37.69
2023-05-30T16:03:55.530Z,38.89
2023-05-30T16:07:59.858Z,39.88
2023-05-30T16:12:02.674Z,39.08
2023-05-30T16:16:05.757Z,37.71
2023-05-30T16:20:08.596Z,38.75
2023-05-30T16:24:10.725Z,38.79
2023-05-30T16:28:13.411Z,39.09
2023-05-30T16:32:15.650Z,40.01
2023-05-30T16:36:20.179Z,39.61
2023-05-30T16:40:22.294Z,39.57
2023-05-30T16:44:25.752Z,40.37
2023-05-30T16:48:27.757Z,40.09
2023-05-30T16:52:29.944Z,40.20
2023-05-30T16:56:32.137Z,40.48
2023-05-30T17:00:34.300Z,40.52
2023-05-30T17:04:36.601Z,41.04
2023-05-30T17:08:39.542Z,41.87
2023-05-30T17:12:41.877Z,41.61
2023-05-30T17:16:44.081Z,42.08
2023-05-30T17:20:47.225Z,43.89
2023-05-30T17:24:49.395Z,43.65
2023-05-30T17:28:52.930Z,43.34
2023-05-30T17:32:55.139Z,44.29
2023-05-30T17:36:57.504Z,44.68
2023-05-30T17:40:59.739Z,44.35
2023-05-30T17:45:03.087Z,45.21
2023-05-30T17:49:05.376Z,45.28
2023-05-30T17:53:07.599Z,46.49
2023-05-30T17:57:10.279Z,46.41
2023-05-30T18:01:12.627Z,46.86
2023-05-30T18:05:17.036Z,48.75
2023-05-30T18:09:19.825Z,49.13
2023-05-30T18:13:22.411Z,51.27
2023-05-30T18:17:24.669Z,52.79
2023-05-30T18:21:27.763Z,53.61
2023-05-30T18:25:30.126Z,56.02
2023-05-30T18:29:36.098Z,57.04
2023-05-30T18:33:38.193Z,64.26
2023-05-30T18:37:40.576Z,67.53
2023-05-30T18:41:43.752Z,63.34
2023-05-30T18:45:46.380Z,68.29
2023-05-30T18:49:49.291Z,64.30
2023-05-30T18:53:51.673Z,75.09
2023-05-30T18:57:54.922Z,75.08
2023-05-30T19:01:58.235Z,72.93
2023-05-30T19:06:00.727Z,84.90
2023-05-30T19:10:03.135Z,100.00
2023-05-30T19:14:05.388Z,97.14
2023-05-30T19:18:07.901Z,100.00
2023-05-30T19:22:10.048Z,94.32
2023-05-30T19:26:12.486Z,88.56
2023-05-30T19:30:15.335Z,88.70
2023-05-30T19:34:17.676Z,90.00
2023-05-30T19:38:20.388Z,100.00
2023-05-30T19:42:22.557Z,100.00
2023-05-30T19:46:29.289Z,100.00
2023-05-30T19:50:31.367Z,100.00
2023-05-30T19:54:33.743Z,100.00
2023-05-30T19:58:36.236Z,100.00
2023-05-30T20:02:40.078Z,100.00
2023-05-30T20:06:41.954Z,100.00
2023-05-30T20:10:44.070Z,100.00
2023-05-30T20:14:46.187Z,100.00
2023-05-30T20:18:51.521Z,100.00
2023-05-30T20:22:54.010Z,100.00
2023-05-30T20:26:56.606Z,100.00
2023-05-30T20:31:00.111Z,100.00
2023-05-30T20:35:03.124Z,100.00
2023-05-30T20:39:06.117Z,100.00
2023-05-30T20:43:08.295Z,100.00
2023-05-30T20:47:11.599Z,100.00
2023-05-30T20:51:13.988Z,100.00
2023-05-30T20:55:15.960Z,100.00
2023-05-30T20:59:18.239Z,100.00
2023-05-30T21:03:20.480Z,100.00
2023-05-30T21:07:23.305Z,100.00
2023-05-30T21:11:25.595Z,100.00
2023-05-30T21:15:28.082Z,100.00
2023-05-30T21:19:30.460Z,100.00
2023-05-30T21:23:32.934Z,100.00
2023-05-30T21:27:35.519Z,100.00
2023-05-30T21:31:38.352Z,100.00
2023-05-30T21:35:40.672Z,100.00
2023-05-30T21:39:43.279Z,100.00
2023-05-30T21:43:46.475Z,100.00
2023-05-30T21:47:48.862Z,100.00
2023-05-30T21:51:51.037Z,100.00
2023-05-30T21:55:53.646Z,100.00
2023-05-30T21:59:56.235Z,100.00
2023-05-30T22:03:58.689Z,100.00
2023-05-30T22:08:00.878Z,100.00
2023-05-30T22:12:03.866Z,100.00
2023-05-30T22:16:06.613Z,100.00
2023-05-30T22:20:09.618Z,100.00
2023-05-30T22:24:12.042Z,100.00
2023-05-30T22:28:14.608Z,100.00
2023-05-30T22:32:16.818Z,100.00
2023-05-30T22:36:19.382Z,100.00
2023-05-30T22:40:21.859Z,100.00
2023-05-30T22:44:24.547Z,100.00
2023-05-30T22:48:26.730Z,100.00
2023-05-30T22:52:29.112Z,100.00
2023-05-30T22:56:31.391Z,100.00
2023-05-30T23:00:33.867Z,100.00
2023-05-30T23:04:37.424Z,100.00
2023-05-30T23:08:39.668Z,100.00
2023-05-30T23:12:42.036Z,100.00
2023-05-30T23:16:44.327Z,100.00
2023-05-30T23:20:46.809Z,100.00
2023-05-30T23:24:49.360Z,100.00
2023-05-30T23:28:51.600Z,100.00
2023-05-30T23:32:54.018Z,100.00
2023-05-30T23:36:56.238Z,100.00
2023-05-30T23:40:58.791Z,100.00
2023-05-30T23:45:01.170Z,100.00
2023-05-30T23:49:03.494Z,100.00
2023-05-30T23:53:05.856Z,100.00
2023-05-30T23:57:08.765Z,100.00
